Huvudsida
METAR-TAF:

METAR-TAF

Flygplatser :

Brindisi-Papola Casales flygplats

Brindisi, Italien

latitud: 40-39N, longitud: 017-57E, höjd: 15 m

Aktuellt väderrapport

Denna rapport gjordes för 34 minuter sedan, klockan 17:50 UTC
Vind 15 kt från nord/nordväst
Temperatur 13°C
Fuktighet 41%
Tryck 1016 hPa
Sikt 10 km eller mer
Spridda moln på en höjd av 4500 ft

METAR: LIBR 281750Z 34015KT 9999 SCT045 13/00 Q1016

Tid: 19:24 (18:24 UTC)

Väderprognos

Denna rapport gjordes för 1 timme och 24 minuter sedan, klockan 17:00 UTC
Prognos gäller från 28 kl. 18 UTC till 29 kl. 18 UTC
Vind 15 kt från nord/nordväst
Sikt 10 km eller mer
Få moln på en höjd av 4000 ft
Blir
från 29 kl. 10 UTC till 29 kl. 12 UTC
Vind 5 kt varierande vindriktning
Blir
från 29 kl. 16 UTC till 29 kl. 18 UTC
Vind 12 kt från sydost

TAF: LIBR 281700Z 2818/2918 33015KT 9999 FEW040 BECMG 2910/2912 VRB05KT BECMG 2916/2918 13012KT

Aktuella väderrapporter och prognoser från 4000 flygplatser (METAR- och TAF-rapporter).

De tillgängliga stationerna syns som gula och röda prickar på kartan.

För musen över prickarna för att se namnen på stationerna.

Klicka sedan för att få väderrapporter och prognoser.

För att ändra kartan: Klicka på de gröna knapparna med ett svart kors på för att zooma in; den gröna knappen med ett streck på för att zooma ut; eller på de gröna pilarna för angränsande kartor.


METAR-TAF: